OAL063 UHPT-UHMA
Flight info
| Callsign | OAL063 |
|---|---|
| Flight time | 2h 25m |
| Altitude | 15000 |
| Route | GUNBA TUSER UNEDA LUGUT SOMEG MITKA ANADYR |
| Aircraft | C208/L-SDFGR/C |
Departure
| Time | 2026-05-07 19:42 |
|---|---|
| Airport | Tilichiki Airport (UHPT) |
Arrival
| Time | 2026-05-07 22:08 |
|---|---|
| Airport | Ugolny Yuri Ryktheu Airport (UHMA) |
| Time | Latitude | Longitude | Altitude | Speed | Heading |
|---|---|---|---|---|---|
| 2026-05-07 19:36 | 60.37792 | 166.02275 | 47 ft | 0 kts | 290° |
| 2026-05-07 19:41 | 60.37789 | 166.02266 | 48 ft | 4 kts | 190° |
| 2026-05-07 19:41 | 60.37765 | 166.02195 | 49 ft | 13 kts | 283° |
| 2026-05-07 19:41 | 60.37835 | 166.02123 | 50 ft | 24 kts | 9° |
| 2026-05-07 19:41 | 60.38200 | 166.02306 | 55 ft | 79 kts | 22° |
| 2026-05-07 19:42 | 60.38595 | 166.02959 | 275 ft | 79 kts | 90° |
| 2026-05-07 19:42 | 60.38741 | 166.04020 | 476 ft | 91 kts | 40° |
| 2026-05-07 19:42 | 60.39366 | 166.04420 | 703 ft | 95 kts | 41° |
| 2026-05-07 19:42 | 60.39820 | 166.05388 | 936 ft | 97 kts | 50° |
| 2026-05-07 19:43 | 60.40307 | 166.06355 | 1157 ft | 100 kts | 50° |
| 2026-05-07 19:43 | 60.40800 | 166.07367 | 1371 ft | 102 kts | 51° |
| 2026-05-07 19:43 | 60.41313 | 166.08417 | 1566 ft | 111 kts | 50° |
| 2026-05-07 19:43 | 60.41877 | 166.09585 | 1771 ft | 121 kts | 51° |
| 2026-05-07 19:44 | 60.42476 | 166.10822 | 1978 ft | 125 kts | 51° |
| 2026-05-07 19:44 | 60.43100 | 166.12109 | 2191 ft | 130 kts | 51° |
| 2026-05-07 19:44 | 60.43743 | 166.13433 | 2396 ft | 133 kts | 51° |
| 2026-05-07 19:44 | 60.44396 | 166.14781 | 2602 ft | 135 kts | 51° |
| 2026-05-07 19:45 | 60.45064 | 166.16165 | 2806 ft | 139 kts | 52° |
| 2026-05-07 19:45 | 60.45738 | 166.17571 | 3013 ft | 140 kts | 52° |
| 2026-05-07 19:45 | 60.46432 | 166.18986 | 3217 ft | 142 kts | 51° |
| 2026-05-07 19:45 | 60.47128 | 166.20417 | 3417 ft | 143 kts | 52° |
| 2026-05-07 19:46 | 60.47821 | 166.21872 | 3619 ft | 143 kts | 52° |
| 2026-05-07 19:46 | 60.48513 | 166.23314 | 3815 ft | 142 kts | 52° |
| 2026-05-07 19:46 | 60.49198 | 166.24756 | 4014 ft | 142 kts | 52° |
| 2026-05-07 19:46 | 60.49888 | 166.26177 | 4211 ft | 142 kts | 52° |
| 2026-05-07 19:47 | 60.50571 | 166.27593 | 4405 ft | 139 kts | 52° |
| 2026-05-07 19:47 | 60.51231 | 166.28987 | 4592 ft | 133 kts | 54° |
| 2026-05-07 19:47 | 60.51849 | 166.30339 | 4788 ft | 131 kts | 52° |
| 2026-05-07 19:47 | 60.52510 | 166.31608 | 4966 ft | 132 kts | 50° |
| 2026-05-07 19:48 | 60.53137 | 166.32901 | 5176 ft | 127 kts | 54° |
| 2026-05-07 19:48 | 60.53754 | 166.34230 | 5370 ft | 127 kts | 53° |
| 2026-05-07 19:48 | 60.54364 | 166.35498 | 5561 ft | 128 kts | 52° |
| 2026-05-07 19:48 | 60.54991 | 166.36786 | 5761 ft | 129 kts | 51° |
| 2026-05-07 19:49 | 60.55633 | 166.38107 | 5963 ft | 133 kts | 52° |
| 2026-05-07 19:49 | 60.56274 | 166.39484 | 6165 ft | 134 kts | 53° |
| 2026-05-07 19:49 | 60.56921 | 166.40861 | 6370 ft | 136 kts | 52° |
| 2026-05-07 19:49 | 60.57588 | 166.42244 | 6569 ft | 136 kts | 52° |
| 2026-05-07 19:50 | 60.58246 | 166.43624 | 6768 ft | 136 kts | 52° |
| 2026-05-07 19:50 | 60.58910 | 166.45001 | 6967 ft | 137 kts | 51° |
| 2026-05-07 19:50 | 60.59574 | 166.46389 | 7169 ft | 137 kts | 52° |
| 2026-05-07 19:50 | 60.60238 | 166.47788 | 7365 ft | 138 kts | 52° |
| 2026-05-07 19:51 | 60.60904 | 166.49192 | 7565 ft | 138 kts | 52° |
| 2026-05-07 19:51 | 60.61577 | 166.50593 | 7764 ft | 138 kts | 53° |
| 2026-05-07 19:51 | 60.62235 | 166.52000 | 7973 ft | 137 kts | 52° |
| 2026-05-07 19:51 | 60.62900 | 166.53395 | 8134 ft | 139 kts | 52° |
| 2026-05-07 19:52 | 60.63582 | 166.54832 | 8265 ft | 143 kts | 52° |
| 2026-05-07 19:52 | 60.64278 | 166.56306 | 8394 ft | 145 kts | 52° |
| 2026-05-07 19:52 | 60.64987 | 166.57799 | 8525 ft | 148 kts | 52° |
| 2026-05-07 19:52 | 60.65705 | 166.59313 | 8655 ft | 149 kts | 52° |
| 2026-05-07 19:53 | 60.66421 | 166.60821 | 8781 ft | 151 kts | 52° |
| 2026-05-07 19:53 | 60.67150 | 166.62360 | 8908 ft | 151 kts | 52° |
| 2026-05-07 19:53 | 60.67879 | 166.63913 | 9033 ft | 152 kts | 52° |
| 2026-05-07 19:53 | 60.68618 | 166.65470 | 9158 ft | 153 kts | 52° |
| 2026-05-07 19:54 | 60.69358 | 166.67035 | 9285 ft | 154 kts | 52° |
| 2026-05-07 19:54 | 60.70100 | 166.68604 | 9410 ft | 153 kts | 52° |
| 2026-05-07 19:54 | 60.70838 | 166.70185 | 9536 ft | 154 kts | 53° |
| 2026-05-07 19:54 | 60.71574 | 166.71774 | 9659 ft | 155 kts | 53° |
| 2026-05-07 19:55 | 60.72315 | 166.73367 | 9780 ft | 155 kts | 53° |
| 2026-05-07 19:55 | 60.73059 | 166.74968 | 9909 ft | 156 kts | 53° |
| 2026-05-07 19:55 | 60.73812 | 166.76592 | 10036 ft | 159 kts | 53° |
| 2026-05-07 19:55 | 60.74578 | 166.78235 | 10163 ft | 160 kts | 53° |
| 2026-05-07 19:56 | 60.75345 | 166.79889 | 10291 ft | 161 kts | 53° |
| 2026-05-07 19:56 | 60.76120 | 166.81564 | 10418 ft | 164 kts | 53° |
| 2026-05-07 19:56 | 60.76901 | 166.83258 | 10546 ft | 164 kts | 53° |
| 2026-05-07 19:56 | 60.77691 | 166.84952 | 10670 ft | 163 kts | 53° |
| 2026-05-07 19:57 | 60.78475 | 166.86653 | 10797 ft | 166 kts | 53° |
| 2026-05-07 19:57 | 60.79266 | 166.88353 | 10917 ft | 164 kts | 53° |
| 2026-05-07 19:57 | 60.80047 | 166.90045 | 11042 ft | 163 kts | 53° |
| 2026-05-07 19:57 | 60.80819 | 166.91719 | 11164 ft | 163 kts | 53° |
| 2026-05-07 19:58 | 60.81597 | 166.93406 | 11288 ft | 164 kts | 53° |
| 2026-05-07 19:58 | 60.82384 | 166.95114 | 11413 ft | 165 kts | 53° |
| 2026-05-07 19:58 | 60.83179 | 166.96830 | 11539 ft | 167 kts | 53° |
| 2026-05-07 19:58 | 60.83976 | 166.98565 | 11665 ft | 167 kts | 53° |
| 2026-05-07 19:59 | 60.84775 | 167.00303 | 11791 ft | 168 kts | 54° |
| 2026-05-07 19:59 | 60.85579 | 167.02049 | 11916 ft | 168 kts | 53° |
| 2026-05-07 19:59 | 60.86382 | 167.03798 | 12041 ft | 168 kts | 54° |
| 2026-05-07 19:59 | 60.87185 | 167.05549 | 12169 ft | 168 kts | 54° |
| 2026-05-07 20:00 | 60.87987 | 167.07299 | 12288 ft | 168 kts | 54° |
| 2026-05-07 20:00 | 60.88779 | 167.09021 | 12410 ft | 168 kts | 54° |
| 2026-05-07 20:00 | 60.89578 | 167.10768 | 12535 ft | 167 kts | 54° |
| 2026-05-07 20:00 | 60.90376 | 167.12512 | 12655 ft | 166 kts | 54° |
| 2026-05-07 20:01 | 60.91164 | 167.14234 | 12766 ft | 165 kts | 54° |
| 2026-05-07 20:01 | 60.91945 | 167.15935 | 12903 ft | 166 kts | 54° |
| 2026-05-07 20:01 | 60.92738 | 167.17676 | 13027 ft | 168 kts | 54° |
| 2026-05-07 20:01 | 60.93529 | 167.19421 | 13151 ft | 167 kts | 55° |
| 2026-05-07 20:02 | 60.94322 | 167.21161 | 13274 ft | 167 kts | 54° |
| 2026-05-07 20:02 | 60.95110 | 167.22906 | 13399 ft | 167 kts | 55° |
| 2026-05-07 20:02 | 60.95898 | 167.24650 | 13521 ft | 165 kts | 54° |
| 2026-05-07 20:02 | 60.96693 | 167.26395 | 13645 ft | 167 kts | 54° |
| 2026-05-07 20:03 | 60.97493 | 167.28148 | 13769 ft | 169 kts | 54° |
| 2026-05-07 20:03 | 60.98299 | 167.29913 | 13896 ft | 169 kts | 54° |
| 2026-05-07 20:03 | 60.99100 | 167.31676 | 14020 ft | 168 kts | 55° |
| 2026-05-07 20:03 | 60.99896 | 167.33438 | 14141 ft | 168 kts | 55° |
| 2026-05-07 20:04 | 61.00694 | 167.35200 | 14271 ft | 168 kts | 55° |
| 2026-05-07 20:04 | 61.01492 | 167.36963 | 14391 ft | 168 kts | 55° |
| 2026-05-07 20:04 | 61.02289 | 167.38728 | 14512 ft | 168 kts | 55° |
| 2026-05-07 20:04 | 61.03087 | 167.40494 | 14645 ft | 168 kts | 55° |
| 2026-05-07 20:05 | 61.03884 | 167.42263 | 14762 ft | 168 kts | 55° |
| 2026-05-07 20:05 | 61.04669 | 167.44002 | 14885 ft | 168 kts | 55° |
| 2026-05-07 20:05 | 61.05476 | 167.45792 | 15010 ft | 168 kts | 55° |
| 2026-05-07 20:05 | 61.06265 | 167.47547 | 15087 ft | 171 kts | 55° |
| 2026-05-07 20:06 | 61.07088 | 167.49383 | 15093 ft | 177 kts | 54° |
| 2026-05-07 20:06 | 61.07936 | 167.51267 | 15100 ft | 180 kts | 54° |
| 2026-05-07 20:06 | 61.08796 | 167.53179 | 15102 ft | 183 kts | 54° |
| 2026-05-07 20:06 | 61.09668 | 167.55118 | 15103 ft | 185 kts | 54° |
| 2026-05-07 20:07 | 61.10545 | 167.57072 | 15103 ft | 186 kts | 54° |
| 2026-05-07 20:07 | 61.11427 | 167.59042 | 15101 ft | 188 kts | 54° |
| 2026-05-07 20:07 | 61.12318 | 167.61028 | 15099 ft | 188 kts | 54° |
| 2026-05-07 20:07 | 61.13206 | 167.63003 | 15099 ft | 188 kts | 54° |
| 2026-05-07 20:08 | 61.14093 | 167.64987 | 15100 ft | 187 kts | 54° |
| 2026-05-07 20:08 | 61.14978 | 167.66972 | 15098 ft | 189 kts | 54° |
| 2026-05-07 20:08 | 61.15875 | 167.68976 | 15100 ft | 189 kts | 54° |
| 2026-05-07 20:08 | 61.16759 | 167.70969 | 15099 ft | 187 kts | 54° |
| 2026-05-07 20:09 | 61.17642 | 167.72971 | 15097 ft | 188 kts | 54° |
| 2026-05-07 20:09 | 61.18530 | 167.74960 | 15098 ft | 188 kts | 54° |
| 2026-05-07 20:09 | 61.19422 | 167.76958 | 15096 ft | 189 kts | 54° |
| 2026-05-07 20:10 | 61.21196 | 167.80958 | 15095 ft | 188 kts | 54° |
| 2026-05-07 20:10 | 61.22082 | 167.82957 | 15095 ft | 188 kts | 54° |
| 2026-05-07 20:10 | 61.22967 | 167.84957 | 15095 ft | 188 kts | 54° |
| 2026-05-07 20:10 | 61.23853 | 167.86963 | 15093 ft | 189 kts | 54° |
| 2026-05-07 20:11 | 61.24741 | 167.88970 | 15094 ft | 189 kts | 54° |
| 2026-05-07 20:11 | 61.25628 | 167.90977 | 15093 ft | 188 kts | 54° |
| 2026-05-07 20:11 | 61.26514 | 167.92983 | 15092 ft | 188 kts | 54° |
| 2026-05-07 20:11 | 61.27397 | 167.94989 | 15093 ft | 188 kts | 54° |
| 2026-05-07 20:12 | 61.28278 | 167.96987 | 15103 ft | 187 kts | 54° |
| 2026-05-07 20:12 | 61.29159 | 167.98993 | 15102 ft | 188 kts | 54° |
| 2026-05-07 20:12 | 61.30041 | 168.00996 | 15104 ft | 188 kts | 55° |
| 2026-05-07 20:12 | 61.30916 | 168.02990 | 15103 ft | 190 kts | 55° |
| 2026-05-07 20:13 | 61.31807 | 168.05018 | 15103 ft | 189 kts | 55° |
| 2026-05-07 20:13 | 61.32696 | 168.07047 | 15103 ft | 189 kts | 54° |
| 2026-05-07 20:13 | 61.33586 | 168.09078 | 15103 ft | 190 kts | 54° |
| 2026-05-07 20:13 | 61.34475 | 168.11107 | 15102 ft | 190 kts | 54° |
| 2026-05-07 20:14 | 61.35363 | 168.13139 | 15101 ft | 189 kts | 54° |
| 2026-05-07 20:14 | 61.36250 | 168.15169 | 15104 ft | 190 kts | 54° |
| 2026-05-07 20:14 | 61.37138 | 168.17204 | 15103 ft | 190 kts | 54° |
| 2026-05-07 20:14 | 61.38028 | 168.19242 | 15102 ft | 190 kts | 55° |
| 2026-05-07 20:15 | 61.38913 | 168.21281 | 15102 ft | 190 kts | 54° |
| 2026-05-07 20:15 | 61.39802 | 168.23319 | 15104 ft | 189 kts | 54° |
| 2026-05-07 20:15 | 61.40690 | 168.25355 | 15104 ft | 190 kts | 55° |
| 2026-05-07 20:15 | 61.41573 | 168.27390 | 15114 ft | 189 kts | 55° |
| 2026-05-07 20:16 | 61.42458 | 168.29433 | 15111 ft | 190 kts | 55° |
| 2026-05-07 20:16 | 61.43345 | 168.31476 | 15114 ft | 190 kts | 54° |
| 2026-05-07 20:16 | 61.43934 | 168.32835 | 15115 ft | 190 kts | 54° |
| 2026-05-07 20:16 | 61.45115 | 168.35563 | 15111 ft | 191 kts | 55° |
| 2026-05-07 20:17 | 61.46008 | 168.37626 | 15115 ft | 191 kts | 54° |
| 2026-05-07 20:17 | 61.46901 | 168.39692 | 15113 ft | 191 kts | 55° |
| 2026-05-07 20:17 | 61.47790 | 168.41752 | 15113 ft | 191 kts | 55° |
| 2026-05-07 20:17 | 61.48678 | 168.43811 | 15110 ft | 190 kts | 55° |
| 2026-05-07 20:18 | 61.49276 | 168.45200 | 15112 ft | 190 kts | 55° |
| 2026-05-07 20:18 | 61.50153 | 168.47236 | 15111 ft | 191 kts | 55° |
| 2026-05-07 20:18 | 61.51040 | 168.49298 | 15111 ft | 191 kts | 55° |
| 2026-05-07 20:18 | 61.51931 | 168.51368 | 15114 ft | 191 kts | 55° |
| 2026-05-07 20:19 | 61.52822 | 168.53442 | 15114 ft | 192 kts | 55° |
| 2026-05-07 20:19 | 61.53712 | 168.55519 | 15123 ft | 190 kts | 55° |
| 2026-05-07 20:19 | 61.54596 | 168.57581 | 15123 ft | 190 kts | 55° |
| 2026-05-07 20:19 | 61.55480 | 168.59647 | 15126 ft | 191 kts | 55° |
| 2026-05-07 20:20 | 61.56367 | 168.61714 | 15123 ft | 190 kts | 55° |
| 2026-05-07 20:20 | 61.57250 | 168.63780 | 15117 ft | 190 kts | 55° |
| 2026-05-07 20:20 | 61.58131 | 168.65841 | 15122 ft | 189 kts | 55° |
| 2026-05-07 20:20 | 61.59005 | 168.67890 | 15122 ft | 188 kts | 55° |
| 2026-05-07 20:21 | 61.59877 | 168.69931 | 15123 ft | 187 kts | 55° |
| 2026-05-07 20:21 | 61.60741 | 168.71970 | 15115 ft | 187 kts | 55° |
| 2026-05-07 20:21 | 61.61609 | 168.74013 | 15123 ft | 187 kts | 55° |
| 2026-05-07 20:21 | 61.62475 | 168.76045 | 15122 ft | 187 kts | 55° |
| 2026-05-07 20:22 | 61.63340 | 168.78082 | 15124 ft | 187 kts | 55° |
| 2026-05-07 20:22 | 61.64209 | 168.80130 | 15121 ft | 187 kts | 55° |
| 2026-05-07 20:22 | 61.65075 | 168.82172 | 15122 ft | 187 kts | 55° |
| 2026-05-07 20:22 | 61.65940 | 168.84216 | 15126 ft | 187 kts | 55° |
| 2026-05-07 20:23 | 61.66810 | 168.86270 | 15134 ft | 187 kts | 55° |
| 2026-05-07 20:23 | 61.67677 | 168.88325 | 15133 ft | 188 kts | 55° |
| 2026-05-07 20:23 | 61.68544 | 168.90376 | 15133 ft | 188 kts | 55° |
| 2026-05-07 20:23 | 61.69401 | 168.92404 | 15131 ft | 187 kts | 55° |
| 2026-05-07 20:24 | 61.70262 | 168.94442 | 15131 ft | 185 kts | 55° |
| 2026-05-07 20:24 | 61.71121 | 168.96485 | 15134 ft | 187 kts | 56° |
| 2026-05-07 20:24 | 61.71988 | 168.98558 | 15137 ft | 189 kts | 56° |
| 2026-05-07 20:24 | 61.72864 | 169.00624 | 15125 ft | 188 kts | 55° |
| 2026-05-07 20:25 | 61.73730 | 169.02677 | 15134 ft | 187 kts | 56° |
| 2026-05-07 20:25 | 61.74583 | 169.04734 | 15129 ft | 186 kts | 56° |
| 2026-05-07 20:25 | 61.75436 | 169.06758 | 15133 ft | 182 kts | 55° |
| 2026-05-07 20:25 | 61.76279 | 169.08764 | 15128 ft | 183 kts | 56° |
| 2026-05-07 20:26 | 61.77117 | 169.10773 | 15126 ft | 182 kts | 56° |
| 2026-05-07 20:26 | 61.77960 | 169.12783 | 15134 ft | 183 kts | 56° |
| 2026-05-07 20:26 | 61.78799 | 169.14782 | 15128 ft | 180 kts | 56° |
| 2026-05-07 20:26 | 61.79626 | 169.16786 | 15135 ft | 182 kts | 56° |
| 2026-05-07 20:27 | 61.80459 | 169.18787 | 15135 ft | 181 kts | 56° |
| 2026-05-07 20:27 | 61.81296 | 169.20776 | 15143 ft | 181 kts | 56° |
| 2026-05-07 20:27 | 61.82127 | 169.22766 | 15137 ft | 180 kts | 55° |
| 2026-05-07 20:27 | 61.82956 | 169.24757 | 15139 ft | 181 kts | 56° |
| 2026-05-07 20:28 | 61.83785 | 169.26758 | 15144 ft | 181 kts | 56° |
| 2026-05-07 20:28 | 61.84618 | 169.28765 | 15143 ft | 181 kts | 56° |
| 2026-05-07 20:28 | 61.85447 | 169.30774 | 15143 ft | 181 kts | 56° |
| 2026-05-07 20:28 | 61.86281 | 169.32783 | 15143 ft | 182 kts | 55° |
| 2026-05-07 20:29 | 61.87117 | 169.34800 | 15144 ft | 182 kts | 56° |
| 2026-05-07 20:29 | 61.87949 | 169.36807 | 15136 ft | 181 kts | 56° |
| 2026-05-07 20:29 | 61.88769 | 169.38794 | 15142 ft | 182 kts | 55° |
| 2026-05-07 20:29 | 61.89607 | 169.40818 | 15139 ft | 182 kts | 55° |
| 2026-05-07 20:30 | 61.90442 | 169.42839 | 15142 ft | 181 kts | 56° |
| 2026-05-07 20:30 | 61.91273 | 169.44857 | 15142 ft | 182 kts | 56° |
| 2026-05-07 20:30 | 61.92103 | 169.46872 | 15150 ft | 181 kts | 56° |
| 2026-05-07 20:30 | 61.92930 | 169.48878 | 15151 ft | 180 kts | 55° |
| 2026-05-07 20:31 | 61.93755 | 169.50887 | 15149 ft | 180 kts | 56° |
| 2026-05-07 20:31 | 61.94576 | 169.52888 | 15151 ft | 178 kts | 55° |
| 2026-05-07 20:31 | 61.95384 | 169.54854 | 15142 ft | 177 kts | 55° |
| 2026-05-07 20:31 | 61.96186 | 169.56801 | 15154 ft | 174 kts | 56° |
| 2026-05-07 20:32 | 61.96983 | 169.58760 | 15153 ft | 175 kts | 56° |
| 2026-05-07 20:32 | 61.97782 | 169.60719 | 15154 ft | 176 kts | 56° |
| 2026-05-07 20:32 | 61.98587 | 169.62681 | 15154 ft | 176 kts | 56° |
| 2026-05-07 20:32 | 61.99384 | 169.64629 | 15154 ft | 176 kts | 55° |
| 2026-05-07 20:33 | 62.00189 | 169.66600 | 15154 ft | 176 kts | 56° |
| 2026-05-07 20:33 | 62.00995 | 169.68579 | 15156 ft | 178 kts | 55° |
| 2026-05-07 20:33 | 62.01807 | 169.70568 | 15154 ft | 178 kts | 56° |
| 2026-05-07 20:33 | 62.02615 | 169.72552 | 15155 ft | 177 kts | 56° |
| 2026-05-07 20:34 | 62.03420 | 169.74529 | 15152 ft | 176 kts | 56° |
| 2026-05-07 20:34 | 62.04218 | 169.76495 | 15150 ft | 175 kts | 56° |
| 2026-05-07 20:34 | 62.05013 | 169.78448 | 15150 ft | 174 kts | 56° |
| 2026-05-07 20:34 | 62.05788 | 169.80384 | 15166 ft | 169 kts | 57° |
| 2026-05-07 20:35 | 62.06536 | 169.82307 | 15163 ft | 167 kts | 56° |
| 2026-05-07 20:35 | 62.07310 | 169.84176 | 15171 ft | 169 kts | 56° |
| 2026-05-07 20:35 | 62.08072 | 169.86100 | 15174 ft | 171 kts | 57° |
| 2026-05-07 20:35 | 62.08846 | 169.88055 | 15179 ft | 173 kts | 57° |
| 2026-05-07 20:36 | 62.09628 | 169.90023 | 15177 ft | 174 kts | 56° |
| 2026-05-07 20:36 | 62.10419 | 169.91993 | 15173 ft | 176 kts | 56° |
| 2026-05-07 20:36 | 62.11212 | 169.93988 | 15172 ft | 176 kts | 56° |
| 2026-05-07 20:36 | 62.12006 | 169.95992 | 15173 ft | 177 kts | 56° |
| 2026-05-07 20:37 | 62.12805 | 169.98014 | 15176 ft | 179 kts | 56° |
| 2026-05-07 20:37 | 62.13610 | 170.00037 | 15174 ft | 179 kts | 56° |
| 2026-05-07 20:37 | 62.14407 | 170.02042 | 15174 ft | 180 kts | 56° |
| 2026-05-07 20:37 | 62.15216 | 170.04093 | 15175 ft | 180 kts | 56° |
| 2026-05-07 20:38 | 62.16024 | 170.06137 | 15171 ft | 180 kts | 56° |
| 2026-05-07 20:38 | 62.16832 | 170.08183 | 15176 ft | 180 kts | 56° |
| 2026-05-07 20:38 | 62.17641 | 170.10233 | 15173 ft | 180 kts | 56° |
| 2026-05-07 20:38 | 62.18454 | 170.12286 | 15175 ft | 182 kts | 56° |
| 2026-05-07 20:39 | 62.19273 | 170.14356 | 15172 ft | 183 kts | 56° |
| 2026-05-07 20:39 | 62.20096 | 170.16439 | 15175 ft | 182 kts | 56° |
| 2026-05-07 20:39 | 62.20915 | 170.18509 | 15178 ft | 182 kts | 56° |
| 2026-05-07 20:39 | 62.21728 | 170.20605 | 15176 ft | 183 kts | 56° |
| 2026-05-07 20:40 | 62.22548 | 170.22697 | 15180 ft | 184 kts | 56° |
| 2026-05-07 20:40 | 62.23375 | 170.24799 | 15179 ft | 184 kts | 56° |
| 2026-05-07 20:40 | 62.24203 | 170.26880 | 15175 ft | 182 kts | 56° |
| 2026-05-07 20:40 | 62.25007 | 170.28959 | 15174 ft | 181 kts | 57° |
| 2026-05-07 20:41 | 62.25818 | 170.31037 | 15171 ft | 181 kts | 56° |
| 2026-05-07 20:41 | 62.26631 | 170.33122 | 15171 ft | 183 kts | 56° |
| 2026-05-07 20:41 | 62.27455 | 170.35206 | 15168 ft | 182 kts | 56° |
| 2026-05-07 20:41 | 62.28260 | 170.37285 | 15170 ft | 180 kts | 56° |
| 2026-05-07 20:42 | 62.29064 | 170.39347 | 15175 ft | 180 kts | 57° |
| 2026-05-07 20:42 | 62.29864 | 170.41404 | 15173 ft | 183 kts | 56° |
| 2026-05-07 20:42 | 62.30687 | 170.43513 | 15174 ft | 184 kts | 56° |
| 2026-05-07 20:42 | 62.31510 | 170.45625 | 15179 ft | 184 kts | 56° |
| 2026-05-07 20:43 | 62.32332 | 170.47743 | 15179 ft | 184 kts | 56° |
| 2026-05-07 20:43 | 62.33155 | 170.49861 | 15179 ft | 185 kts | 56° |
| 2026-05-07 20:43 | 62.33980 | 170.51986 | 15179 ft | 185 kts | 56° |
| 2026-05-07 20:43 | 62.34803 | 170.54127 | 15183 ft | 186 kts | 56° |
| 2026-05-07 20:44 | 62.35637 | 170.56275 | 15183 ft | 187 kts | 56° |
| 2026-05-07 20:44 | 62.36476 | 170.58439 | 15186 ft | 188 kts | 56° |
| 2026-05-07 20:44 | 62.37316 | 170.60612 | 15184 ft | 189 kts | 56° |
| 2026-05-07 20:44 | 62.38161 | 170.62801 | 15184 ft | 190 kts | 56° |
| 2026-05-07 20:45 | 62.39003 | 170.64994 | 15183 ft | 190 kts | 56° |
| 2026-05-07 20:45 | 62.39850 | 170.67188 | 15184 ft | 190 kts | 56° |
| 2026-05-07 20:45 | 62.40690 | 170.69358 | 15188 ft | 191 kts | 56° |
| 2026-05-07 20:45 | 62.41541 | 170.71572 | 15191 ft | 192 kts | 56° |
| 2026-05-07 20:46 | 62.42394 | 170.73800 | 15193 ft | 193 kts | 56° |
| 2026-05-07 20:46 | 62.43250 | 170.76034 | 15191 ft | 192 kts | 56° |
| 2026-05-07 20:46 | 62.44097 | 170.78261 | 15188 ft | 191 kts | 56° |
| 2026-05-07 20:46 | 62.44947 | 170.80472 | 15187 ft | 192 kts | 56° |
| 2026-05-07 20:47 | 62.45801 | 170.82691 | 15187 ft | 192 kts | 56° |
| 2026-05-07 20:47 | 62.46650 | 170.84897 | 15187 ft | 190 kts | 56° |
| 2026-05-07 20:47 | 62.47488 | 170.87095 | 15188 ft | 190 kts | 57° |
| 2026-05-07 20:47 | 62.48324 | 170.89284 | 15188 ft | 188 kts | 56° |
| 2026-05-07 20:48 | 62.49152 | 170.91476 | 15188 ft | 188 kts | 56° |
| 2026-05-07 20:48 | 62.49982 | 170.93670 | 15188 ft | 189 kts | 57° |
| 2026-05-07 20:48 | 62.50820 | 170.95877 | 15186 ft | 190 kts | 56° |
| 2026-05-07 20:48 | 62.51662 | 170.98086 | 15186 ft | 191 kts | 56° |
| 2026-05-07 20:49 | 62.52506 | 171.00302 | 15188 ft | 191 kts | 56° |
| 2026-05-07 20:49 | 62.53351 | 171.02534 | 15189 ft | 192 kts | 56° |
| 2026-05-07 20:49 | 62.54189 | 171.04739 | 15188 ft | 192 kts | 56° |
| 2026-05-07 20:49 | 62.55046 | 171.07006 | 15190 ft | 192 kts | 56° |
| 2026-05-07 20:50 | 62.55890 | 171.09249 | 15192 ft | 192 kts | 56° |
| 2026-05-07 20:50 | 62.56729 | 171.11448 | 15189 ft | 191 kts | 56° |
| 2026-05-07 20:50 | 62.57572 | 171.13683 | 15200 ft | 190 kts | 56° |
| 2026-05-07 20:50 | 62.58407 | 171.15913 | 15199 ft | 191 kts | 56° |
| 2026-05-07 20:51 | 62.59247 | 171.18145 | 15193 ft | 191 kts | 57° |
| 2026-05-07 20:51 | 62.60079 | 171.20400 | 15198 ft | 192 kts | 56° |
| 2026-05-07 20:51 | 62.60933 | 171.22634 | 15200 ft | 192 kts | 56° |
| 2026-05-07 20:51 | 62.61787 | 171.24876 | 15202 ft | 192 kts | 56° |
| 2026-05-07 20:52 | 62.62622 | 171.27127 | 15204 ft | 191 kts | 57° |
| 2026-05-07 20:52 | 62.63466 | 171.29381 | 15205 ft | 193 kts | 56° |
| 2026-05-07 20:52 | 62.64314 | 171.31639 | 15203 ft | 193 kts | 56° |
| 2026-05-07 20:52 | 62.65158 | 171.33898 | 15202 ft | 192 kts | 56° |
| 2026-05-07 20:53 | 62.65998 | 171.36149 | 15202 ft | 191 kts | 57° |
| 2026-05-07 20:53 | 62.66826 | 171.38374 | 15192 ft | 191 kts | 56° |
| 2026-05-07 20:53 | 62.67656 | 171.40585 | 15201 ft | 187 kts | 56° |
| 2026-05-07 20:53 | 62.68473 | 171.42785 | 15200 ft | 186 kts | 57° |
| 2026-05-07 20:54 | 62.69287 | 171.44992 | 15200 ft | 188 kts | 57° |
| 2026-05-07 20:54 | 62.70109 | 171.47207 | 15197 ft | 188 kts | 57° |
| 2026-05-07 20:54 | 62.70933 | 171.49427 | 15201 ft | 189 kts | 56° |
| 2026-05-07 20:54 | 62.71767 | 171.51647 | 15207 ft | 189 kts | 57° |
| 2026-05-07 20:55 | 62.72595 | 171.53885 | 15207 ft | 190 kts | 57° |
| 2026-05-07 20:55 | 62.73370 | 171.55984 | 15208 ft | 190 kts | 57° |
| 2026-05-07 20:55 | 62.74201 | 171.58232 | 15205 ft | 189 kts | 57° |
| 2026-05-07 20:55 | 62.75014 | 171.60444 | 15207 ft | 184 kts | 57° |
| 2026-05-07 20:56 | 62.75822 | 171.62638 | 15209 ft | 187 kts | 57° |
| 2026-05-07 20:56 | 62.76649 | 171.64853 | 15209 ft | 189 kts | 57° |
| 2026-05-07 20:56 | 62.77473 | 171.67088 | 15210 ft | 190 kts | 57° |
| 2026-05-07 20:56 | 62.78300 | 171.69342 | 15211 ft | 191 kts | 57° |
| 2026-05-07 20:57 | 62.79139 | 171.71632 | 15213 ft | 193 kts | 57° |
| 2026-05-07 20:57 | 62.79978 | 171.73908 | 15214 ft | 192 kts | 57° |
| 2026-05-07 20:57 | 62.80813 | 171.76179 | 15212 ft | 191 kts | 57° |
| 2026-05-07 20:57 | 62.81641 | 171.78442 | 15211 ft | 190 kts | 57° |
| 2026-05-07 20:58 | 62.82470 | 171.80703 | 15210 ft | 191 kts | 57° |
| 2026-05-07 20:58 | 62.83297 | 171.82966 | 15210 ft | 191 kts | 57° |
| 2026-05-07 20:58 | 62.84125 | 171.85232 | 15209 ft | 191 kts | 57° |
| 2026-05-07 20:58 | 62.84955 | 171.87508 | 15209 ft | 191 kts | 57° |
| 2026-05-07 20:59 | 62.85780 | 171.89779 | 15208 ft | 191 kts | 57° |
| 2026-05-07 20:59 | 62.86607 | 171.92054 | 15215 ft | 190 kts | 57° |
| 2026-05-07 20:59 | 62.87433 | 171.94330 | 15216 ft | 191 kts | 57° |
| 2026-05-07 20:59 | 62.88260 | 171.96615 | 15215 ft | 192 kts | 57° |
| 2026-05-07 21:00 | 62.89087 | 171.98900 | 15214 ft | 191 kts | 57° |
| 2026-05-07 21:00 | 62.89913 | 172.01182 | 15216 ft | 191 kts | 57° |
| 2026-05-07 21:00 | 62.90739 | 172.03471 | 15214 ft | 191 kts | 57° |
| 2026-05-07 21:00 | 62.91566 | 172.05759 | 15215 ft | 191 kts | 57° |
| 2026-05-07 21:01 | 62.92381 | 172.08021 | 15213 ft | 191 kts | 57° |
| 2026-05-07 21:01 | 62.93205 | 172.10308 | 15213 ft | 191 kts | 57° |
| 2026-05-07 21:01 | 62.94029 | 172.12597 | 15213 ft | 191 kts | 57° |
| 2026-05-07 21:01 | 62.94855 | 172.14893 | 15214 ft | 191 kts | 57° |
| 2026-05-07 21:02 | 62.95678 | 172.17184 | 15213 ft | 191 kts | 57° |
| 2026-05-07 21:02 | 62.96501 | 172.19479 | 15213 ft | 191 kts | 57° |
| 2026-05-07 21:02 | 62.97322 | 172.21769 | 15214 ft | 191 kts | 57° |
| 2026-05-07 21:02 | 62.98141 | 172.24059 | 15215 ft | 191 kts | 57° |
| 2026-05-07 21:03 | 62.98963 | 172.26356 | 15214 ft | 191 kts | 57° |
| 2026-05-07 21:03 | 62.99786 | 172.28658 | 15214 ft | 192 kts | 57° |
| 2026-05-07 21:03 | 63.00611 | 172.30966 | 15214 ft | 192 kts | 57° |
| 2026-05-07 21:03 | 63.01155 | 172.32494 | 15213 ft | 192 kts | 57° |
| 2026-05-07 21:04 | 63.01975 | 172.34793 | 15225 ft | 191 kts | 57° |
| 2026-05-07 21:04 | 63.02792 | 172.37095 | 15230 ft | 191 kts | 57° |
| 2026-05-07 21:04 | 63.03611 | 172.39402 | 15233 ft | 191 kts | 57° |
| 2026-05-07 21:04 | 63.04426 | 172.41698 | 15234 ft | 190 kts | 57° |
| 2026-05-07 21:05 | 63.05244 | 172.43998 | 15234 ft | 190 kts | 57° |
| 2026-05-07 21:05 | 63.06056 | 172.46293 | 15233 ft | 190 kts | 57° |
| 2026-05-07 21:05 | 63.06870 | 172.48591 | 15233 ft | 190 kts | 57° |
| 2026-05-07 21:05 | 63.07688 | 172.50901 | 15232 ft | 191 kts | 57° |
| 2026-05-07 21:06 | 63.08505 | 172.53212 | 15232 ft | 191 kts | 57° |
| 2026-05-07 21:06 | 63.09322 | 172.55524 | 15232 ft | 191 kts | 57° |
| 2026-05-07 21:06 | 63.10140 | 172.57844 | 15232 ft | 191 kts | 57° |
| 2026-05-07 21:06 | 63.10957 | 172.60161 | 15231 ft | 191 kts | 57° |
| 2026-05-07 21:07 | 63.11776 | 172.62485 | 15232 ft | 192 kts | 57° |
| 2026-05-07 21:07 | 63.12587 | 172.64792 | 15230 ft | 192 kts | 57° |
| 2026-05-07 21:07 | 63.13405 | 172.67120 | 15229 ft | 192 kts | 57° |
| 2026-05-07 21:07 | 63.14223 | 172.69453 | 15229 ft | 191 kts | 57° |
| 2026-05-07 21:08 | 63.15037 | 172.71776 | 15227 ft | 191 kts | 57° |
| 2026-05-07 21:08 | 63.15852 | 172.74103 | 15228 ft | 191 kts | 57° |
| 2026-05-07 21:08 | 63.16668 | 172.76431 | 15226 ft | 192 kts | 57° |
| 2026-05-07 21:08 | 63.17482 | 172.78760 | 15226 ft | 191 kts | 57° |
| 2026-05-07 21:09 | 63.18295 | 172.81096 | 15234 ft | 191 kts | 57° |
| 2026-05-07 21:09 | 63.19109 | 172.83432 | 15232 ft | 191 kts | 57° |
| 2026-05-07 21:09 | 63.19922 | 172.85763 | 15231 ft | 191 kts | 57° |
| 2026-05-07 21:09 | 63.20737 | 172.88104 | 15231 ft | 191 kts | 57° |
| 2026-05-07 21:10 | 63.21551 | 172.90443 | 15231 ft | 192 kts | 57° |
| 2026-05-07 21:10 | 63.22365 | 172.92785 | 15232 ft | 192 kts | 57° |
| 2026-05-07 21:10 | 63.23179 | 172.95131 | 15232 ft | 191 kts | 57° |
| 2026-05-07 21:10 | 63.23991 | 172.97474 | 15232 ft | 191 kts | 57° |
| 2026-05-07 21:11 | 63.24801 | 172.99816 | 15230 ft | 191 kts | 57° |
| 2026-05-07 21:11 | 63.25610 | 173.02154 | 15231 ft | 191 kts | 57° |
| 2026-05-07 21:11 | 63.27215 | 173.06799 | 15233 ft | 191 kts | 57° |
| 2026-05-07 21:12 | 63.28022 | 173.09142 | 15232 ft | 191 kts | 57° |
| 2026-05-07 21:12 | 63.28831 | 173.11491 | 15231 ft | 191 kts | 57° |
| 2026-05-07 21:12 | 63.29644 | 173.13830 | 15232 ft | 192 kts | 57° |
| 2026-05-07 21:12 | 63.30457 | 173.16184 | 15231 ft | 191 kts | 57° |
| 2026-05-07 21:13 | 63.31262 | 173.18541 | 15233 ft | 191 kts | 57° |
| 2026-05-07 21:13 | 63.32065 | 173.20893 | 15232 ft | 191 kts | 57° |
| 2026-05-07 21:13 | 63.32873 | 173.23251 | 15233 ft | 192 kts | 57° |
| 2026-05-07 21:13 | 63.33683 | 173.25616 | 15232 ft | 192 kts | 57° |
| 2026-05-07 21:14 | 63.34492 | 173.27981 | 15231 ft | 192 kts | 57° |
| 2026-05-07 21:14 | 63.35300 | 173.30346 | 15231 ft | 191 kts | 57° |
| 2026-05-07 21:14 | 63.36106 | 173.32707 | 15243 ft | 191 kts | 57° |
| 2026-05-07 21:14 | 63.36909 | 173.35066 | 15241 ft | 191 kts | 57° |
| 2026-05-07 21:15 | 63.37711 | 173.37421 | 15240 ft | 191 kts | 57° |
| 2026-05-07 21:15 | 63.38513 | 173.39780 | 15240 ft | 191 kts | 57° |
| 2026-05-07 21:15 | 63.39316 | 173.42143 | 15241 ft | 191 kts | 57° |
| 2026-05-07 21:15 | 63.40117 | 173.44504 | 15241 ft | 191 kts | 57° |
| 2026-05-07 21:16 | 63.40910 | 173.46843 | 15240 ft | 191 kts | 57° |
| 2026-05-07 21:16 | 63.41712 | 173.49210 | 15240 ft | 191 kts | 57° |
| 2026-05-07 21:16 | 63.42514 | 173.51582 | 15239 ft | 191 kts | 57° |
| 2026-05-07 21:16 | 63.43310 | 173.53962 | 15242 ft | 191 kts | 58° |
| 2026-05-07 21:17 | 63.44110 | 173.56335 | 15242 ft | 191 kts | 57° |
| 2026-05-07 21:17 | 63.44912 | 173.58699 | 15241 ft | 191 kts | 57° |
| 2026-05-07 21:17 | 63.45713 | 173.61075 | 15241 ft | 191 kts | 57° |
| 2026-05-07 21:17 | 63.46513 | 173.63451 | 15240 ft | 191 kts | 57° |
| 2026-05-07 21:18 | 63.47314 | 173.65835 | 15240 ft | 192 kts | 57° |
| 2026-05-07 21:18 | 63.48117 | 173.68216 | 15243 ft | 191 kts | 57° |
| 2026-05-07 21:18 | 63.48917 | 173.70597 | 15242 ft | 191 kts | 57° |
| 2026-05-07 21:18 | 63.49713 | 173.72975 | 15243 ft | 191 kts | 58° |
| 2026-05-07 21:19 | 63.50509 | 173.75358 | 15242 ft | 191 kts | 58° |
| 2026-05-07 21:19 | 63.51307 | 173.77746 | 15241 ft | 192 kts | 57° |
| 2026-05-07 21:19 | 63.52105 | 173.80130 | 15239 ft | 191 kts | 57° |
| 2026-05-07 21:19 | 63.52901 | 173.82516 | 15240 ft | 191 kts | 57° |
| 2026-05-07 21:20 | 63.53695 | 173.84895 | 15241 ft | 190 kts | 57° |
| 2026-05-07 21:20 | 63.54486 | 173.87274 | 15240 ft | 190 kts | 58° |
| 2026-05-07 21:20 | 63.55274 | 173.89646 | 15241 ft | 190 kts | 57° |
| 2026-05-07 21:20 | 63.56062 | 173.92014 | 15240 ft | 190 kts | 58° |
| 2026-05-07 21:21 | 63.56849 | 173.94390 | 15251 ft | 190 kts | 58° |
| 2026-05-07 21:21 | 63.57639 | 173.96769 | 15252 ft | 190 kts | 58° |
| 2026-05-07 21:21 | 63.58432 | 173.99154 | 15254 ft | 191 kts | 58° |
| 2026-05-07 21:21 | 63.59225 | 174.01549 | 15257 ft | 191 kts | 58° |
| 2026-05-07 21:22 | 63.60017 | 174.03946 | 15258 ft | 191 kts | 58° |
| 2026-05-07 21:22 | 63.60808 | 174.06347 | 15259 ft | 191 kts | 58° |
| 2026-05-07 21:22 | 63.61591 | 174.08720 | 15259 ft | 191 kts | 58° |
| 2026-05-07 21:22 | 63.62383 | 174.11126 | 15259 ft | 192 kts | 58° |
| 2026-05-07 21:23 | 63.63177 | 174.13538 | 15258 ft | 192 kts | 58° |
| 2026-05-07 21:23 | 63.63968 | 174.15944 | 15260 ft | 191 kts | 58° |
| 2026-05-07 21:23 | 63.64761 | 174.18360 | 15259 ft | 192 kts | 58° |
| 2026-05-07 21:23 | 63.65552 | 174.20771 | 15258 ft | 191 kts | 58° |
| 2026-05-07 21:24 | 63.66344 | 174.23186 | 15260 ft | 191 kts | 58° |
| 2026-05-07 21:24 | 63.67134 | 174.25599 | 15260 ft | 192 kts | 58° |
| 2026-05-07 21:24 | 63.67927 | 174.28021 | 15259 ft | 192 kts | 58° |
| 2026-05-07 21:24 | 63.68716 | 174.30438 | 15258 ft | 191 kts | 58° |
| 2026-05-07 21:25 | 63.69503 | 174.32852 | 15259 ft | 191 kts | 58° |
| 2026-05-07 21:25 | 63.70289 | 174.35261 | 15258 ft | 191 kts | 58° |
| 2026-05-07 21:25 | 63.71074 | 174.37674 | 15259 ft | 190 kts | 58° |
| 2026-05-07 21:25 | 63.71857 | 174.40083 | 15260 ft | 190 kts | 58° |
| 2026-05-07 21:26 | 63.72642 | 174.42495 | 15259 ft | 190 kts | 58° |
| 2026-05-07 21:26 | 63.73414 | 174.44872 | 15259 ft | 190 kts | 58° |
| 2026-05-07 21:26 | 63.74196 | 174.47284 | 15258 ft | 190 kts | 58° |
| 2026-05-07 21:26 | 63.74978 | 174.49700 | 15259 ft | 190 kts | 58° |
| 2026-05-07 21:27 | 63.75759 | 174.52113 | 15258 ft | 190 kts | 58° |
| 2026-05-07 21:27 | 63.76540 | 174.54529 | 15258 ft | 190 kts | 58° |
| 2026-05-07 21:27 | 63.77322 | 174.56950 | 15259 ft | 190 kts | 58° |
| 2026-05-07 21:27 | 63.78104 | 174.59373 | 15259 ft | 191 kts | 58° |
| 2026-05-07 21:28 | 63.78883 | 174.61792 | 15258 ft | 190 kts | 58° |
| 2026-05-07 21:28 | 63.79663 | 174.64213 | 15258 ft | 190 kts | 58° |
| 2026-05-07 21:28 | 63.80440 | 174.66634 | 15260 ft | 190 kts | 58° |
| 2026-05-07 21:28 | 63.81300 | 174.68928 | 15257 ft | 193 kts | 47° |
| 2026-05-07 21:29 | 63.82374 | 174.70774 | 15259 ft | 195 kts | 35° |
| 2026-05-07 21:29 | 63.83597 | 174.72154 | 15260 ft | 197 kts | 28° |
| 2026-05-07 21:29 | 63.84851 | 174.73431 | 15259 ft | 198 kts | 27° |
| 2026-05-07 21:29 | 63.86073 | 174.74816 | 15259 ft | 195 kts | 40° |
| 2026-05-07 21:30 | 63.86841 | 174.77217 | 15265 ft | 189 kts | 68° |
| 2026-05-07 21:30 | 63.87548 | 174.79747 | 15262 ft | 191 kts | 57° |
| 2026-05-07 21:30 | 63.88343 | 174.82160 | 15263 ft | 190 kts | 58° |
| 2026-05-07 21:30 | 63.89090 | 174.84634 | 15265 ft | 190 kts | 60° |
| 2026-05-07 21:31 | 63.89823 | 174.87130 | 15265 ft | 190 kts | 60° |
| 2026-05-07 21:31 | 63.90551 | 174.89593 | 15265 ft | 190 kts | 60° |
| 2026-05-07 21:31 | 63.91289 | 174.92089 | 15265 ft | 191 kts | 60° |
| 2026-05-07 21:31 | 63.92031 | 174.94595 | 15265 ft | 191 kts | 60° |
| 2026-05-07 21:32 | 63.92773 | 174.97104 | 15266 ft | 191 kts | 60° |
| 2026-05-07 21:32 | 63.93513 | 174.99616 | 15265 ft | 191 kts | 60° |
| 2026-05-07 21:32 | 63.94254 | 175.02129 | 15264 ft | 191 kts | 60° |
| 2026-05-07 21:32 | 63.94995 | 175.04645 | 15264 ft | 192 kts | 60° |
| 2026-05-07 21:33 | 63.95736 | 175.07163 | 15262 ft | 192 kts | 60° |
| 2026-05-07 21:33 | 63.96475 | 175.09685 | 15262 ft | 192 kts | 60° |
| 2026-05-07 21:33 | 63.97214 | 175.12204 | 15261 ft | 191 kts | 60° |
| 2026-05-07 21:33 | 63.97953 | 175.14725 | 15259 ft | 191 kts | 60° |
| 2026-05-07 21:34 | 63.98689 | 175.17239 | 15258 ft | 191 kts | 60° |
| 2026-05-07 21:34 | 63.99421 | 175.19744 | 15260 ft | 190 kts | 60° |
| 2026-05-07 21:34 | 64.00154 | 175.22253 | 15258 ft | 190 kts | 59° |
| 2026-05-07 21:34 | 64.00886 | 175.24765 | 15260 ft | 190 kts | 59° |
| 2026-05-07 21:35 | 64.01619 | 175.27279 | 15259 ft | 191 kts | 59° |
| 2026-05-07 21:35 | 64.02352 | 175.29797 | 15270 ft | 190 kts | 59° |
| 2026-05-07 21:35 | 64.03083 | 175.32312 | 15269 ft | 190 kts | 59° |
| 2026-05-07 21:35 | 64.03815 | 175.34831 | 15268 ft | 190 kts | 59° |
| 2026-05-07 21:36 | 64.04537 | 175.37321 | 15268 ft | 190 kts | 59° |
| 2026-05-07 21:36 | 64.05276 | 175.39872 | 15267 ft | 190 kts | 59° |
| 2026-05-07 21:36 | 64.05998 | 175.42364 | 15268 ft | 190 kts | 59° |
| 2026-05-07 21:36 | 64.06726 | 175.44888 | 15267 ft | 190 kts | 59° |
| 2026-05-07 21:37 | 64.07455 | 175.47409 | 15268 ft | 190 kts | 59° |
| 2026-05-07 21:37 | 64.08185 | 175.49936 | 15268 ft | 190 kts | 59° |
| 2026-05-07 21:37 | 64.08914 | 175.52465 | 15268 ft | 190 kts | 59° |
| 2026-05-07 21:37 | 64.09643 | 175.54998 | 15268 ft | 190 kts | 59° |
| 2026-05-07 21:38 | 64.10371 | 175.57528 | 15268 ft | 190 kts | 59° |
| 2026-05-07 21:38 | 64.11097 | 175.60056 | 15268 ft | 190 kts | 59° |
| 2026-05-07 21:38 | 64.11824 | 175.62588 | 15267 ft | 190 kts | 59° |
| 2026-05-07 21:38 | 64.12550 | 175.65123 | 15269 ft | 190 kts | 59° |
| 2026-05-07 21:39 | 64.13276 | 175.67660 | 15268 ft | 191 kts | 60° |
| 2026-05-07 21:39 | 64.14001 | 175.70197 | 15268 ft | 190 kts | 60° |
| 2026-05-07 21:39 | 64.14725 | 175.72732 | 15269 ft | 190 kts | 60° |
| 2026-05-07 21:39 | 64.15449 | 175.75270 | 15268 ft | 190 kts | 60° |
| 2026-05-07 21:40 | 64.16171 | 175.77804 | 15267 ft | 190 kts | 60° |
| 2026-05-07 21:40 | 64.16892 | 175.80338 | 15269 ft | 190 kts | 60° |
| 2026-05-07 21:40 | 64.17615 | 175.82879 | 15268 ft | 190 kts | 60° |
| 2026-05-07 21:40 | 64.18327 | 175.85387 | 15268 ft | 190 kts | 60° |
| 2026-05-07 21:41 | 64.19058 | 175.87963 | 15269 ft | 190 kts | 60° |
| 2026-05-07 21:41 | 64.19769 | 175.90470 | 15268 ft | 190 kts | 60° |
| 2026-05-07 21:41 | 64.20488 | 175.93013 | 15268 ft | 190 kts | 60° |
| 2026-05-07 21:41 | 64.21208 | 175.95561 | 15267 ft | 191 kts | 60° |
| 2026-05-07 21:42 | 64.21929 | 175.98117 | 15269 ft | 190 kts | 60° |
| 2026-05-07 21:42 | 64.22648 | 176.00665 | 15268 ft | 190 kts | 60° |
| 2026-05-07 21:42 | 64.23365 | 176.03213 | 15269 ft | 190 kts | 60° |
| 2026-05-07 21:42 | 64.24084 | 176.05766 | 15268 ft | 190 kts | 60° |
| 2026-05-07 21:43 | 64.24801 | 176.08319 | 15267 ft | 190 kts | 60° |
| 2026-05-07 21:43 | 64.25518 | 176.10872 | 15269 ft | 190 kts | 60° |
| 2026-05-07 21:43 | 64.26234 | 176.13427 | 15268 ft | 190 kts | 60° |
| 2026-05-07 21:43 | 64.26950 | 176.15983 | 15267 ft | 190 kts | 60° |
| 2026-05-07 21:44 | 64.27662 | 176.18541 | 15268 ft | 190 kts | 62° |
| 2026-05-07 21:44 | 64.28112 | 176.21347 | 15271 ft | 187 kts | 79° |
| 2026-05-07 21:44 | 64.28427 | 176.24254 | 15271 ft | 187 kts | 77° |
| 2026-05-07 21:44 | 64.28766 | 176.27153 | 15271 ft | 187 kts | 77° |
| 2026-05-07 21:45 | 64.29098 | 176.30055 | 15271 ft | 188 kts | 78° |
| 2026-05-07 21:45 | 64.29424 | 176.32926 | 15271 ft | 188 kts | 78° |
| 2026-05-07 21:45 | 64.29753 | 176.35832 | 15271 ft | 188 kts | 78° |
| 2026-05-07 21:45 | 64.30081 | 176.38741 | 15270 ft | 188 kts | 78° |
| 2026-05-07 21:46 | 64.30410 | 176.41650 | 15270 ft | 188 kts | 78° |
| 2026-05-07 21:46 | 64.30738 | 176.44568 | 15269 ft | 188 kts | 78° |
| 2026-05-07 21:46 | 64.31065 | 176.47482 | 15268 ft | 188 kts | 78° |
| 2026-05-07 21:46 | 64.31391 | 176.50401 | 15268 ft | 188 kts | 78° |
| 2026-05-07 21:47 | 64.31718 | 176.53321 | 15269 ft | 188 kts | 78° |
| 2026-05-07 21:47 | 64.32043 | 176.56237 | 15268 ft | 188 kts | 78° |
| 2026-05-07 21:47 | 64.32368 | 176.59159 | 15268 ft | 188 kts | 78° |
| 2026-05-07 21:47 | 64.32693 | 176.62078 | 15269 ft | 188 kts | 78° |
| 2026-05-07 21:48 | 64.33017 | 176.65001 | 15268 ft | 188 kts | 78° |
| 2026-05-07 21:48 | 64.33341 | 176.67923 | 15267 ft | 188 kts | 78° |
| 2026-05-07 21:48 | 64.33664 | 176.70849 | 15268 ft | 188 kts | 78° |
| 2026-05-07 21:48 | 64.33986 | 176.73778 | 15268 ft | 188 kts | 78° |
| 2026-05-07 21:49 | 64.34309 | 176.76705 | 15269 ft | 188 kts | 78° |
| 2026-05-07 21:49 | 64.34626 | 176.79596 | 15268 ft | 188 kts | 78° |
| 2026-05-07 21:49 | 64.34948 | 176.82530 | 15268 ft | 188 kts | 78° |
| 2026-05-07 21:49 | 64.35268 | 176.85465 | 15267 ft | 188 kts | 78° |
| 2026-05-07 21:50 | 64.35589 | 176.88402 | 15269 ft | 188 kts | 78° |
| 2026-05-07 21:50 | 64.35908 | 176.91331 | 15268 ft | 188 kts | 78° |
| 2026-05-07 21:50 | 64.36226 | 176.94264 | 15267 ft | 188 kts | 78° |
| 2026-05-07 21:50 | 64.36545 | 176.97206 | 15268 ft | 188 kts | 78° |
| 2026-05-07 21:51 | 64.36863 | 177.00139 | 15269 ft | 188 kts | 78° |
| 2026-05-07 21:51 | 64.37180 | 177.03073 | 15268 ft | 188 kts | 78° |
| 2026-05-07 21:51 | 64.37496 | 177.06015 | 15268 ft | 188 kts | 78° |
| 2026-05-07 21:51 | 64.37811 | 177.08938 | 15120 ft | 193 kts | 78° |
| 2026-05-07 21:52 | 64.38127 | 177.11837 | 14830 ft | 177 kts | 78° |
| 2026-05-07 21:52 | 64.38413 | 177.14507 | 14404 ft | 165 kts | 78° |
| 2026-05-07 21:52 | 64.38681 | 177.17014 | 13978 ft | 157 kts | 78° |
| 2026-05-07 21:52 | 64.38939 | 177.19435 | 13523 ft | 155 kts | 78° |
| 2026-05-07 21:53 | 64.39197 | 177.21862 | 13008 ft | 155 kts | 78° |
| 2026-05-07 21:53 | 64.39371 | 177.23500 | 12673 ft | 155 kts | 78° |
| 2026-05-07 21:53 | 64.39628 | 177.25919 | 12178 ft | 155 kts | 78° |
| 2026-05-07 21:53 | 64.39881 | 177.28299 | 11685 ft | 154 kts | 78° |
| 2026-05-07 21:54 | 64.40136 | 177.30699 | 11191 ft | 154 kts | 78° |
| 2026-05-07 21:54 | 64.40389 | 177.33096 | 10694 ft | 153 kts | 78° |
| 2026-05-07 21:54 | 64.40641 | 177.35492 | 10197 ft | 153 kts | 77° |
| 2026-05-07 21:54 | 64.40892 | 177.37875 | 9701 ft | 152 kts | 77° |
| 2026-05-07 21:55 | 64.41142 | 177.40252 | 9204 ft | 152 kts | 77° |
| 2026-05-07 21:55 | 64.41391 | 177.42623 | 8706 ft | 151 kts | 77° |
| 2026-05-07 21:55 | 64.41639 | 177.44984 | 8211 ft | 151 kts | 77° |
| 2026-05-07 21:55 | 64.41885 | 177.47339 | 7714 ft | 150 kts | 77° |
| 2026-05-07 21:56 | 64.42130 | 177.49681 | 7218 ft | 149 kts | 77° |
| 2026-05-07 21:56 | 64.42373 | 177.52014 | 6717 ft | 149 kts | 77° |
| 2026-05-07 21:56 | 64.42697 | 177.54220 | 6224 ft | 149 kts | 59° |
| 2026-05-07 21:56 | 64.43466 | 177.55855 | 5704 ft | 148 kts | 29° |
| 2026-05-07 21:57 | 64.44448 | 177.56551 | 5205 ft | 148 kts | 13° |
| 2026-05-07 21:57 | 64.45442 | 177.57110 | 4712 ft | 147 kts | 15° |
| 2026-05-07 21:57 | 64.46424 | 177.57709 | 4222 ft | 145 kts | 15° |
| 2026-05-07 21:57 | 64.47396 | 177.58294 | 3722 ft | 144 kts | 15° |
| 2026-05-07 21:58 | 64.48359 | 177.58881 | 3220 ft | 143 kts | 17° |
| 2026-05-07 21:58 | 64.49277 | 177.59488 | 2996 ft | 126 kts | 17° |
| 2026-05-07 21:58 | 64.50058 | 177.59928 | 2981 ft | 106 kts | 15° |
| 2026-05-07 21:58 | 64.50723 | 177.60317 | 2980 ft | 92 kts | 16° |
| 2026-05-07 21:59 | 64.51315 | 177.60667 | 2990 ft | 89 kts | 16° |
| 2026-05-07 21:59 | 64.51915 | 177.61020 | 2991 ft | 89 kts | 17° |
| 2026-05-07 21:59 | 64.52516 | 177.61377 | 2992 ft | 89 kts | 16° |
| 2026-05-07 21:59 | 64.53126 | 177.61743 | 2997 ft | 91 kts | 16° |
| 2026-05-07 22:00 | 64.53745 | 177.62111 | 3001 ft | 92 kts | 17° |
| 2026-05-07 22:00 | 64.54372 | 177.62489 | 3007 ft | 94 kts | 17° |
| 2026-05-07 22:00 | 64.55009 | 177.62875 | 3008 ft | 95 kts | 17° |
| 2026-05-07 22:00 | 64.55652 | 177.63264 | 3008 ft | 96 kts | 16° |
| 2026-05-07 22:01 | 64.56300 | 177.63654 | 3008 ft | 97 kts | 16° |
| 2026-05-07 22:01 | 64.56950 | 177.64051 | 3009 ft | 96 kts | 17° |
| 2026-05-07 22:01 | 64.57596 | 177.64446 | 3008 ft | 96 kts | 17° |
| 2026-05-07 22:01 | 64.58269 | 177.64858 | 2909 ft | 105 kts | 17° |
| 2026-05-07 22:02 | 64.58989 | 177.65298 | 2778 ft | 104 kts | 16° |
| 2026-05-07 22:02 | 64.59665 | 177.65711 | 2633 ft | 98 kts | 17° |
| 2026-05-07 22:02 | 64.60315 | 177.66106 | 2502 ft | 95 kts | 17° |
| 2026-05-07 22:02 | 64.60946 | 177.66493 | 2375 ft | 93 kts | 17° |
| 2026-05-07 22:03 | 64.61577 | 177.66879 | 2251 ft | 94 kts | 17° |
| 2026-05-07 22:03 | 64.62213 | 177.67269 | 2129 ft | 94 kts | 17° |
| 2026-05-07 22:03 | 64.62830 | 177.67643 | 2006 ft | 87 kts | 17° |
| 2026-05-07 22:03 | 64.63402 | 177.67988 | 1887 ft | 84 kts | 17° |
| 2026-05-07 22:04 | 64.63960 | 177.68322 | 1780 ft | 83 kts | 17° |
| 2026-05-07 22:04 | 64.64514 | 177.68661 | 1675 ft | 82 kts | 18° |
| 2026-05-07 22:04 | 64.65067 | 177.68998 | 1563 ft | 82 kts | 16° |
| 2026-05-07 22:04 | 64.65621 | 177.69343 | 1453 ft | 82 kts | 17° |
| 2026-05-07 22:05 | 64.66179 | 177.69679 | 1345 ft | 83 kts | 17° |
| 2026-05-07 22:05 | 64.66738 | 177.70018 | 1232 ft | 83 kts | 17° |
| 2026-05-07 22:05 | 64.67301 | 177.70366 | 1118 ft | 84 kts | 17° |
| 2026-05-07 22:05 | 64.67865 | 177.70709 | 1010 ft | 84 kts | 17° |
| 2026-05-07 22:06 | 64.68430 | 177.71056 | 898 ft | 84 kts | 18° |
| 2026-05-07 22:06 | 64.68995 | 177.71402 | 787 ft | 84 kts | 17° |
| 2026-05-07 22:06 | 64.69560 | 177.71748 | 675 ft | 84 kts | 17° |
| 2026-05-07 22:06 | 64.70125 | 177.72097 | 567 ft | 84 kts | 18° |
| 2026-05-07 22:07 | 64.70687 | 177.72453 | 453 ft | 84 kts | 17° |
| 2026-05-07 22:07 | 64.71240 | 177.72794 | 348 ft | 82 kts | 17° |
| 2026-05-07 22:07 | 64.71780 | 177.73102 | 237 ft | 80 kts | 15° |
| 2026-05-07 22:07 | 64.72305 | 177.73423 | 157 ft | 72 kts | 17° |
| 2026-05-07 22:08 | 64.72627 | 177.73621 | 163 ft | 20 kts | 15° |
| 2026-05-07 22:08 | 64.72719 | 177.73624 | 166 ft | 18 kts | 305° |
| 2026-05-07 22:08 | 64.72753 | 177.73342 | 165 ft | 24 kts | 280° |
| 2026-05-07 22:08 | 64.72737 | 177.73144 | 165 ft | 14 kts | 190° |
| 2026-05-07 22:09 | 64.72612 | 177.73068 | 163 ft | 25 kts | 194° |
| 2026-05-07 22:09 | 64.72490 | 177.72992 | 161 ft | 8 kts | 194° |
| 2026-05-07 22:09 | 64.72381 | 177.72931 | 159 ft | 16 kts | 193° |
| 2026-05-07 22:09 | 64.72256 | 177.72856 | 157 ft | 18 kts | 193° |
| 2026-05-07 22:10 | 64.72143 | 177.72885 | 155 ft | 19 kts | 154° |
| 2026-05-07 22:10 | 64.72055 | 177.73040 | 154 ft | 9 kts | 139° |
| 2026-05-07 22:10 | 64.71981 | 177.73188 | 154 ft | 11 kts | 125° |
| 2026-05-07 22:10 | 64.71923 | 177.73323 | 152 ft | 12 kts | 149° |
| 2026-05-07 22:11 | 64.71824 | 177.73445 | 152 ft | 12 kts | 152° |
| 2026-05-07 22:11 | 64.71739 | 177.73572 | 152 ft | 13 kts | 163° |
| 2026-05-07 22:11 | 64.71650 | 177.73710 | 152 ft | 13 kts | 141° |
| 2026-05-07 22:11 | 64.71578 | 177.73798 | 152 ft | 7 kts | 189° |
| 2026-05-07 22:12 | 64.71552 | 177.73733 | 152 ft | 6 kts | 277° |
| 2026-05-07 22:12 | 64.71551 | 177.73690 | 152 ft | 0 kts | 270° |